Time;durP1;ratioP1;P1;durP2;ratioP2;P2;SDS_P1;SDS_P2;PMS_P1;PMS_P2;Temp;Humidity;BMP_temperature;BMP_pressure;BME280_temperature;BME280_humidity;BME280_pressure;Samples;Min_cycle;Max_cycle;Signal;HPM_P1;HPM_P2
2023/08/27 00:00:29;;;;;;;5.70;4.30;;;;;;;28.58;39.88;100365.21;104052;1291;69176;-85
2023/08/27 00:03:04;;;;;;;4.80;4.10;;;;;;;28.58;39.79;100365.30;103939;1288;69273;-89
2023/08/27 00:05:30;;;;;;;4.20;3.80;;;;;;;28.58;40.00;100363.16;103798;1288;70005;-84
2023/08/27 00:07:56;;;;;;;4.50;4.10;;;;;;;28.58;39.93;100366.98;104120;1287;69191;-84
2023/08/27 00:10:21;;;;;;;5.40;4.00;;;;;;;28.58;39.95;100366.98;104020;1287;69247;-84
2023/08/27 00:12:47;;;;;;;5.40;4.20;;;;;;;28.57;39.84;100365.55;103825;1288;69438;-84
2023/08/27 00:15:12;;;;;;;4.40;4.00;;;;;;;28.57;39.86;100364.81;104111;1287;69293;-85
2023/08/27 00:17:38;;;;;;;6.30;4.30;;;;;;;28.57;39.81;100359.65;103765;1288;69436;-84
2023/08/27 00:20:06;;;;;;;5.30;4.30;;;;;;;28.57;40.04;100357.34;104007;1288;69273;-84
2023/08/27 00:22:32;;;;;;;4.80;4.40;;;;;;;28.56;39.93;100352.90;104047;1287;69328;-84
2023/08/27 00:24:58;;;;;;;4.40;4.00;;;;;;;28.56;39.84;100353.02;104070;1288;69219;-84
2023/08/27 00:27:23;;;;;;;5.00;4.20;;;;;;;28.56;39.86;100347.05;103894;1293;69270;-84
2023/08/27 00:29:52;;;;;;;4.30;3.90;;;;;;;28.56;39.87;100348.30;104099;1290;69272;-90
2023/08/27 00:32:18;;;;;;;4.60;4.10;;;;;;;28.55;39.75;100346.67;103987;1288;69296;-85
2023/08/27 00:34:43;;;;;;;4.30;3.90;;;;;;;28.55;39.87;100342.08;104003;1291;69237;-85
2023/08/27 00:37:09;;;;;;;4.50;4.10;;;;;;;28.55;39.87;100343.06;103909;1288;69389;-85
2023/08/27 00:39:36;;;;;;;6.50;4.20;;;;;;;28.55;39.81;100340.83;104044;1288;70240;-85
2023/08/27 00:42:04;;;;;;;4.70;4.00;;;;;;;28.54;39.87;100344.16;103955;1288;73736;-85
2023/08/27 00:44:30;;;;;;;4.50;4.00;;;;;;;28.55;39.84;100345.91;104010;1289;69118;-85
2023/08/27 00:46:56;;;;;;;4.20;3.80;;;;;;;28.55;39.79;100343.74;104112;1288;69114;-85
2023/08/27 00:49:21;;;;;;;4.80;4.20;;;;;;;28.54;39.76;100349.14;103883;1288;69349;-85
2023/08/27 00:51:47;;;;;;;5.20;4.30;;;;;;;28.54;39.92;100351.38;103782;1288;69263;-84
2023/08/27 00:54:12;;;;;;;4.60;4.10;;;;;;;28.54;39.90;100352.09;103983;1288;69285;-85
2023/08/27 00:56:47;;;;;;;5.10;4.20;;;;;;;28.53;39.76;100349.63;103867;1288;69242;-85
2023/08/27 00:59:13;;;;;;;6.30;4.60;;;;;;;28.53;39.84;100346.59;103637;1294;69237;-85
2023/08/27 01:01:39;;;;;;;4.40;4.00;;;;;;;28.53;39.73;100346.34;103928;1290;69192;-85
2023/08/27 01:04:04;;;;;;;5.40;3.90;;;;;;;28.53;39.82;100346.14;103782;1288;69209;-85
2023/08/27 01:06:30;;;;;;;5.00;4.40;;;;;;;28.51;39.85;100340.79;103831;1288;69349;-85
2023/08/27 01:09:06;;;;;;;4.80;4.30;;;;;;;28.52;39.87;100340.41;103946;1289;69389;-85
2023/08/27 01:11:51;;;;;;;8.00;4.20;;;;;;;28.52;39.80;100341.36;103664;1288;69267;-84
2023/08/27 01:14:17;;;;;;;4.30;3.80;;;;;;;28.51;39.80;100338.70;103941;1287;73504;-84
2023/08/27 01:16:43;;;;;;;6.30;4.00;;;;;;;28.51;39.80;100343.03;103933;1289;69364;-85
2023/08/27 01:19:15;;;;;;;6.60;4.20;;;;;;;28.51;39.67;100340.41;103851;1291;69293;-85
2023/08/27 01:21:41;;;;;;;6.20;4.10;;;;;;;28.50;39.64;100340.94;103993;1290;69223;-85
2023/08/27 01:24:07;;;;;;;5.00;4.00;;;;;;;28.50;39.74;100338.92;104092;1287;69396;-85
2023/08/27 01:27:03;;;;;;;4.30;3.70;;;;;;;28.49;39.75;100339.77;103833;1288;69298;-84
2023/08/27 01:35:14;;;;;;;5.10;4.10;;;;;;;28.47;39.76;100333.89;104103;1290;69244;-85
2023/08/27 01:37:39;;;;;;;4.70;4.10;;;;;;;28.48;39.85;100329.41;103866;1286;69277;-84
2023/08/27 01:40:05;;;;;;;5.40;4.10;;;;;;;28.48;39.73;100329.10;104080;1290;69248;-85
2023/08/27 01:42:37;;;;;;;5.00;4.10;;;;;;;28.48;39.67;100330.66;103719;1295;69199;-85
2023/08/27 01:45:04;;;;;;;4.50;3.90;;;;;;;28.48;39.70;100333.93;103757;1288;69332;-85
2023/08/27 01:47:30;;;;;;;7.10;3.80;;;;;;;28.48;39.70;100332.64;103843;1288;69175;-85
2023/08/27 01:49:55;;;;;;;4.90;3.90;;;;;;;28.48;39.59;100331.95;104090;1288;69261;-84
2023/08/27 01:52:21;;;;;;;7.60;4.10;;;;;;;28.48;39.72;100336.30;104064;1291;69286;-84
2023/08/27 01:54:46;;;;;;;4.40;3.80;;;;;;;28.48;39.60;100334.91;103783;1293;69257;-85
2023/08/27 01:57:12;;;;;;;4.60;4.10;;;;;;;28.47;39.70;100333.58;104156;1288;70492;-85
2023/08/27 01:59:42;;;;;;;5.80;3.90;;;;;;;28.47;39.70;100335.55;103796;1288;70921;-90
2023/08/27 02:02:08;;;;;;;4.80;4.00;;;;;;;28.47;39.68;100337.83;103990;1287;73487;-85
2023/08/27 02:04:33;;;;;;;5.40;4.30;;;;;;;28.47;39.64;100331.54;104047;1288;69250;-85
2023/08/27 02:06:59;;;;;;;4.90;4.30;;;;;;;28.47;39.55;100333.23;104149;1288;69302;-85
2023/08/27 02:09:25;;;;;;;4.30;3.90;;;;;;;28.46;39.55;100329.90;104152;1287;69293;-85
2023/08/27 02:11:52;;;;;;;5.00;4.00;;;;;;;28.46;39.57;100331.03;104259;1287;69205;-84
2023/08/27 02:14:17;;;;;;;4.20;3.80;;;;;;;28.46;39.62;100333.77;103906;1292;69278;-85
2023/08/27 02:16:43;;;;;;;4.10;3.70;;;;;;;28.46;39.60;100335.86;104033;1288;69292;-85
2023/08/27 02:19:08;;;;;;;5.40;4.20;;;;;;;28.46;39.63;100333.73;103755;1288;69706;-84
2023/08/27 02:21:34;;;;;;;4.20;3.80;;;;;;;28.46;39.72;100330.84;103991;1286;69275;-85
2023/08/27 02:23:59;;;;;;;4.00;3.70;;;;;;;28.45;39.69;100326.83;104026;1288;69269;-85
2023/08/27 02:28:58;;;;;;;4.90;3.80;;;;;;;28.44;39.56;100326.17;104254;1286;69202;-84
2023/08/27 02:31:24;;;;;;;5.40;3.90;;;;;;;28.44;39.80;100323.45;104069;1291;69260;-84
2023/08/27 02:33:49;;;;;;;4.60;3.60;;;;;;;28.44;39.74;100318.36;104099;1287;69269;-85
2023/08/27 02:36:15;;;;;;;4.60;4.10;;;;;;;28.44;39.77;100318.05;104222;1292;69270;-85
2023/08/27 02:38:41;;;;;;;5.90;3.90;;;;;;;28.44;39.57;100312.48;104142;1288;69298;-85
2023/08/27 02:41:07;;;;;;;4.40;4.00;;;;;;;28.44;39.71;100314.61;104061;1291;69504;-84
2023/08/27 02:43:32;;;;;;;5.30;3.80;;;;;;;28.44;39.79;100321.85;104159;1288;69235;-84
2023/08/27 02:45:58;;;;;;;3.70;3.30;;;;;;;28.43;39.86;100323.52;103926;1286;69288;-85
2023/08/27 02:48:24;;;;;;;5.40;3.90;;;;;;;28.43;39.68;100326.18;104114;1286;69211;-84
2023/08/27 02:50:50;;;;;;;3.80;3.50;;;;;;;28.42;39.74;100328.98;103985;1291;69144;-85
2023/08/27 02:53:16;;;;;;;3.90;3.50;;;;;;;28.43;39.73;100324.42;104051;1286;69218;-85
2023/08/27 02:55:41;;;;;;;4.70;3.70;;;;;;;28.42;39.87;100322.98;104056;1286;70378;-84
2023/08/27 02:58:06;;;;;;;5.30;3.70;;;;;;;28.42;39.85;100324.85;104144;1287;70347;-85
2023/08/27 03:00:32;;;;;;;4.00;3.50;;;;;;;28.42;39.82;100321.39;104069;1287;70452;-84
2023/08/27 03:02:58;;;;;;;4.50;4.00;;;;;;;28.42;39.87;100321.24;104156;1286;69276;-85
2023/08/27 03:05:28;;;;;;;6.30;3.60;;;;;;;28.42;39.82;100323.79;104088;1286;69308;-90
2023/08/27 03:07:53;;;;;;;4.30;3.90;;;;;;;28.41;39.76;100329.56;103993;1286;69129;-85
2023/08/27 03:10:19;;;;;;;4.10;3.70;;;;;;;28.41;40.00;100329.41;104091;1286;69288;-85
2023/08/27 03:12:44;;;;;;;5.50;4.10;;;;;;;28.41;39.89;100329.34;104109;1287;69255;-85
2023/08/27 03:15:10;;;;;;;4.00;3.50;;;;;;;28.41;39.83;100333.02;104094;1287;67249;-85
2023/08/27 03:17:35;;;;;;;4.50;3.80;;;;;;;28.41;39.77;100336.86;104183;1286;69305;-84
2023/08/27 03:20:01;;;;;;;4.10;3.60;;;;;;;28.41;39.86;100335.55;103907;1292;69317;-84
2023/08/27 03:22:26;;;;;;;4.10;3.70;;;;;;;28.41;39.90;100335.10;104231;1287;69343;-84
2023/08/27 03:24:54;;;;;;;4.60;3.80;;;;;;;28.40;39.89;100335.20;104047;1288;69257;-84
2023/08/27 03:27:19;;;;;;;5.00;3.60;;;;;;;28.40;39.97;100334.49;104048;1290;69291;-84
2023/08/27 03:29:45;;;;;;;4.60;3.80;;;;;;;28.40;40.00;100333.09;103976;1288;69280;-85
2023/08/27 03:34:44;;;;;;;4.30;3.80;;;;;;;28.40;40.21;100328.62;104290;1285;72674;-84
2023/08/27 03:37:09;;;;;;;4.20;3.80;;;;;;;28.40;40.13;100326.77;104181;1291;69243;-85
2023/08/27 03:39:35;;;;;;;5.00;3.80;;;;;;;28.40;40.02;100324.48;100223;1286;5529109;-85
2023/08/27 03:42:00;;;;;;;4.70;3.80;;;;;;;28.40;40.09;100324.89;104192;1286;72498;-85
2023/08/27 03:44:25;;;;;;;4.10;3.70;;;;;;;28.40;40.21;100332.02;104175;1291;69188;-84
2023/08/27 03:46:51;;;;;;;4.10;3.70;;;;;;;28.40;40.15;100331.58;104160;1286;69146;-85
2023/08/27 03:49:16;;;;;;;4.50;3.80;;;;;;;28.39;40.20;100328.58;104343;1286;69234;-86
2023/08/27 03:51:42;;;;;;;6.50;3.90;;;;;;;28.40;40.24;100326.34;104442;1286;67857;-85
2023/08/27 03:54:08;;;;;;;4.90;3.80;;;;;;;28.40;40.29;100329.18;104172;1286;69256;-85
2023/08/27 03:56:33;;;;;;;5.30;3.80;;;;;;;28.39;40.39;100328.39;104054;1286;69386;-85
2023/08/27 03:58:59;;;;;;;4.40;3.40;;;;;;;28.39;40.37;100329.94;104037;1291;69659;-85
2023/08/27 04:01:24;;;;;;;4.00;3.60;;;;;;;28.39;40.38;100329.83;104063;1285;67426;-85
2023/08/27 04:03:50;;;;;;;3.80;3.40;;;;;;;28.39;40.31;100329.41;104173;1287;71250;-85
2023/08/27 04:06:15;;;;;;;4.90;3.60;;;;;;;28.39;40.47;100331.39;104189;1286;69214;-85
2023/08/27 04:08:41;;;;;;;4.40;4.00;;;;;;;28.39;40.39;100331.23;104139;1290;69304;-85
2023/08/27 04:11:15;;;;;;;4.60;3.30;;;;;;;28.39;40.52;100331.39;104149;1291;69248;-91
2023/08/27 04:13:40;;;;;;;4.40;3.80;;;;;;;28.39;40.49;100334.61;104149;1290;70819;-85
2023/08/27 04:16:07;;;;;;;3.80;3.40;;;;;;;28.39;40.54;100335.53;104219;1291;69306;-85
2023/08/27 04:18:33;;;;;;;4.40;3.80;;;;;;;28.39;40.59;100339.16;104062;1291;69240;-85
2023/08/27 04:20:58;;;;;;;5.40;3.60;;;;;;;28.39;40.73;100340.30;104028;1286;69138;-85
2023/08/27 04:23:24;;;;;;;3.90;3.20;;;;;;;28.39;40.85;100341.45;104153;1291;69262;-85
2023/08/27 04:25:49;;;;;;;4.90;3.80;;;;;;;28.39;40.90;100339.77;104159;1291;69268;-85
2023/08/27 04:28:15;;;;;;;5.40;3.60;;;;;;;28.38;40.83;100341.14;104248;1290;69142;-85
2023/08/27 04:30:42;;;;;;;3.90;3.50;;;;;;;28.39;40.83;100342.20;104089;1289;69231;-85
2023/08/27 04:33:07;;;;;;;4.90;3.60;;;;;;;28.39;40.70;100342.58;104014;1291;69270;-85
2023/08/27 04:35:33;;;;;;;4.70;4.00;;;;;;;28.39;40.89;100345.85;103919;1291;69345;-85
2023/08/27 04:38:15;;;;;;;4.70;3.70;;;;;;;28.38;40.93;100346.98;103805;1293;69082;-90
2023/08/27 04:40:41;;;;;;;5.80;3.80;;;;;;;28.38;41.06;100349.97;103919;1289;69291;-85
2023/08/27 04:43:06;;;;;;;3.90;3.50;;;;;;;28.39;41.19;100349.41;103934;1292;69405;-85
2023/08/27 04:45:32;;;;;;;5.20;3.50;;;;;;;28.39;41.24;100349.45;104060;1290;69273;-85
2023/08/27 04:47:57;;;;;;;5.00;3.50;;;;;;;28.39;41.32;100354.96;104114;1295;69281;-85
2023/08/27 04:50:23;;;;;;;5.10;3.80;;;;;;;28.39;41.30;100356.70;104151;1291;69284;-85
2023/08/27 04:52:48;;;;;;;3.70;3.30;;;;;;;28.39;41.34;100363.67;103941;1291;69298;-85
2023/08/27 04:55:14;;;;;;;4.50;3.60;;;;;;;28.39;41.30;100361.55;104039;1289;69253;-85
2023/08/27 04:57:39;;;;;;;5.50;3.70;;;;;;;28.39;41.50;100361.52;104147;1291;67895;-85
2023/08/27 05:00:13;;;;;;;4.50;3.80;;;;;;;28.39;41.61;100360.84;104120;1290;69286;-85
2023/08/27 05:02:38;;;;;;;4.70;3.90;;;;;;;28.39;41.63;100360.98;103981;1292;69191;-86
2023/08/27 05:05:04;;;;;;;3.80;3.50;;;;;;;28.39;41.68;100361.13;103896;1294;69292;-85
2023/08/27 05:07:30;;;;;;;5.50;3.70;;;;;;;28.39;41.78;100364.40;104056;1289;67277;-85
2023/08/27 05:09:55;;;;;;;4.20;3.30;;;;;;;28.40;41.86;100368.02;104060;1287;69734;-85
2023/08/27 05:12:21;;;;;;;3.80;3.50;;;;;;;28.40;41.89;100371.00;104076;1292;69262;-85
2023/08/27 05:14:46;;;;;;;6.30;3.60;;;;;;;28.40;41.96;100375.59;103940;1287;68323;-85
2023/08/27 05:17:12;;;;;;;4.10;3.20;;;;;;;28.41;42.12;100372.21;104118;1292;70486;-85
2023/08/27 05:19:38;;;;;;;5.60;3.70;;;;;;;28.40;42.14;100374.30;104012;1291;69227;-85
2023/08/27 05:22:03;;;;;;;3.80;3.40;;;;;;;28.40;42.00;100373.33;103948;1295;69280;-85
2023/08/27 05:24:29;;;;;;;4.40;3.80;;;;;;;28.41;42.11;100372.79;104127;1288;69213;-85
2023/08/27 05:26:54;;;;;;;4.60;3.80;;;;;;;28.41;42.19;100373.50;104122;1288;69214;-84
2023/08/27 05:29:20;;;;;;;3.90;3.50;;;;;;;28.41;42.18;100373.13;104055;1290;69331;-85
2023/08/27 05:32:02;;;;;;;4.30;3.40;;;;;;;28.41;42.38;100369.83;103877;1290;69289;-90
2023/08/27 05:34:28;;;;;;;3.50;3.20;;;;;;;28.41;42.30;100371.80;104028;1290;69204;-85
2023/08/27 05:36:53;;;;;;;4.90;3.70;;;;;;;28.41;42.35;100371.69;104246;1289;69170;-85
2023/08/27 05:39:19;;;;;;;4.50;3.90;;;;;;;28.41;42.42;100369.02;104115;1290;67489;-85
2023/08/27 05:41:45;;;;;;;4.00;3.60;;;;;;;28.42;42.49;100372.33;104123;1292;67450;-85
2023/08/27 05:44:10;;;;;;;4.50;4.00;;;;;;;28.42;42.57;100375.10;104034;1289;69251;-85
2023/08/27 05:46:36;;;;;;;4.30;3.60;;;;;;;28.43;42.52;100373.54;104049;1286;69013;-85
2023/08/27 05:49:01;;;;;;;4.70;3.90;;;;;;;28.43;42.42;100375.32;104096;1289;69249;-85
2023/08/27 05:51:27;;;;;;;4.30;3.90;;;;;;;28.42;42.61;100375.09;104259;1291;69313;-85
2023/08/27 05:53:53;;;;;;;4.10;3.70;;;;;;;28.43;42.58;100381.02;104315;1289;69282;-85
2023/08/27 05:56:18;;;;;;;4.30;3.50;;;;;;;28.44;42.63;100382.23;104278;1288;69242;-85
2023/08/27 05:58:54;;;;;;;4.60;3.70;;;;;;;28.44;42.61;100385.04;104109;1288;69154;-91
2023/08/27 06:01:19;;;;;;;3.90;3.50;;;;;;;28.44;42.80;100387.20;104049;1288;73704;-85
2023/08/27 06:03:45;;;;;;;4.00;3.60;;;;;;;28.45;42.73;100387.99;104154;1290;69201;-85
2023/08/27 06:06:10;;;;;;;4.30;3.90;;;;;;;28.45;42.71;100387.58;104166;1288;67450;-85
2023/08/27 06:08:36;;;;;;;5.20;3.80;;;;;;;28.46;42.77;100388.64;104059;1290;69279;-85
2023/08/27 06:11:04;;;;;;;4.20;3.80;;;;;;;28.47;42.69;100387.88;106287;1289;67512;-87
2023/08/27 06:13:30;;;;;;;4.10;3.70;;;;;;;28.47;42.80;100387.05;106461;1288;67122;-85
2023/08/27 06:15:56;;;;;;;5.60;4.00;;;;;;;28.48;42.87;100387.63;106645;1287;66832;-86
2023/08/27 06:18:22;;;;;;;4.30;3.80;;;;;;;28.50;42.79;100389.90;106717;1288;66886;-86
2023/08/27 06:20:48;;;;;;;5.20;3.90;;;;;;;28.52;42.89;100392.19;106469;1289;67800;-86
2023/08/27 06:23:14;;;;;;;4.60;3.90;;;;;;;28.53;42.72;100390.32;106309;1287;67232;-86
2023/08/27 06:25:48;;;;;;;4.10;3.70;;;;;;;28.54;42.65;100389.98;104937;1288;69265;-91
2023/08/27 06:28:15;;;;;;;4.20;3.80;;;;;;;28.55;42.80;100392.36;104016;1288;69206;-85
2023/08/27 06:30:41;;;;;;;4.20;3.80;;;;;;;28.56;42.74;100390.47;104134;1286;69696;-85
2023/08/27 06:33:09;;;;;;;4.00;3.60;;;;;;;28.57;42.69;100390.70;103991;1289;69198;-85
2023/08/27 06:35:35;;;;;;;4.60;4.10;;;;;;;28.58;42.67;100396.90;104147;1288;73549;-85
2023/08/27 06:38:01;;;;;;;6.00;4.10;;;;;;;28.58;42.71;100398.23;104186;1290;69193;-85
2023/08/27 06:40:28;;;;;;;6.60;3.80;;;;;;;28.60;42.77;100400.05;105246;1288;69246;-85
2023/08/27 06:42:56;;;;;;;4.00;3.60;;;;;;;28.60;42.77;100402.47;107150;1285;66740;-85
2023/08/27 06:45:21;;;;;;;5.40;4.00;;;;;;;28.60;42.66;100402.05;107133;1286;66481;-85
2023/08/27 06:47:47;;;;;;;4.30;3.90;;;;;;;28.61;42.68;100401.71;106399;1287;67147;-85
2023/08/27 06:50:13;;;;;;;5.00;4.20;;;;;;;28.61;42.73;100399.18;104664;1283;69243;-86
2023/08/27 06:52:39;;;;;;;6.20;4.30;;;;;;;28.62;42.78;100401.00;104706;1286;69230;-91
2023/08/27 06:55:04;;;;;;;4.90;4.20;;;;;;;28.63;42.62;100398.77;104509;1287;69068;-84
2023/08/27 06:57:30;;;;;;;4.60;4.10;;;;;;;28.62;42.65;100401.04;104407;1286;69137;-84
2023/08/27 06:59:55;;;;;;;4.20;3.80;;;;;;;28.63;42.68;100398.38;104376;1283;69176;-84
2023/08/27 07:02:21;;;;;;;5.30;4.10;;;;;;;28.63;42.73;100393.67;104367;1288;69251;-84
2023/08/27 07:04:47;;;;;;;4.80;4.10;;;;;;;28.64;42.53;100392.88;104464;1286;70149;-85
2023/08/27 07:07:13;;;;;;;5.50;4.40;;;;;;;28.63;42.57;100395.68;104069;1286;73726;-84
2023/08/27 07:09:38;;;;;;;4.30;3.90;;;;;;;28.63;42.68;100392.84;104163;1286;72605;-84
2023/08/27 07:12:05;;;;;;;4.90;4.00;;;;;;;28.64;42.65;100396.86;104429;1284;68293;-84
2023/08/27 07:14:30;;;;;;;4.40;4.00;;;;;;;28.64;42.64;100397.73;104488;1286;69186;-84
2023/08/27 07:16:56;;;;;;;4.70;3.80;;;;;;;28.65;42.55;100399.25;104530;1286;69247;-84
2023/08/27 07:19:34;;;;;;;6.70;4.00;;;;;;;28.65;42.52;100399.44;104724;1288;68456;-91
2023/08/27 07:22:00;;;;;;;4.40;4.00;;;;;;;28.65;42.47;100403.27;104409;1288;69131;-85
2023/08/27 07:24:26;;;;;;;4.70;4.10;;;;;;;28.66;42.67;100401.63;104473;1289;69352;-85
2023/08/27 07:26:52;;;;;;;4.80;4.40;;;;;;;28.66;42.56;100398.75;104521;1285;69246;-85
2023/08/27 07:29:17;;;;;;;4.70;4.20;;;;;;;28.66;42.36;100400.23;104414;1288;69219;-85
2023/08/27 07:31:43;;;;;;;5.10;4.50;;;;;;;28.67;42.45;100398.30;104246;1286;70202;-85
2023/08/27 07:34:08;;;;;;;4.50;4.00;;;;;;;28.67;42.47;100396.73;104624;1288;69291;-85
2023/08/27 07:36:34;;;;;;;5.00;4.40;;;;;;;28.69;42.15;100398.25;104343;1288;69149;-85
2023/08/27 07:38:59;;;;;;;5.20;4.20;;;;;;;28.69;42.30;100392.86;104318;1288;69278;-85
2023/08/27 07:41:25;;;;;;;4.70;3.70;;;;;;;28.69;42.13;100393.89;104302;1288;69336;-85
2023/08/27 07:43:50;;;;;;;4.50;4.00;;;;;;;28.69;42.06;100394.08;104333;1286;69212;-85
2023/08/27 07:46:32;;;;;;;5.40;4.30;;;;;;;28.70;42.18;100393.85;104248;1286;70329;-91
2023/08/27 07:48:57;;;;;;;4.70;4.00;;;;;;;28.70;42.18;100393.48;104240;1288;73911;-85
2023/08/27 07:51:23;;;;;;;6.40;4.30;;;;;;;28.71;42.07;100389.83;104485;1286;69180;-85
2023/08/27 07:53:48;;;;;;;4.70;4.20;;;;;;;28.71;41.98;100389.23;104337;1286;69355;-85
2023/08/27 07:56:14;;;;;;;5.60;4.70;;;;;;;28.72;42.03;100390.22;104310;1288;69352;-85
2023/08/27 07:58:39;;;;;;;4.50;4.10;;;;;;;28.72;41.93;100386.80;104424;1285;69232;-85
2023/08/27 08:01:05;;;;;;;4.80;4.10;;;;;;;28.73;41.97;100390.98;104344;1286;69192;-84
2023/08/27 08:03:30;;;;;;;4.70;4.10;;;;;;;28.74;41.84;100387.23;104313;1289;67941;-85
2023/08/27 08:05:56;;;;;;;4.40;4.00;;;;;;;28.73;41.79;100385.30;104346;1289;69205;-84
2023/08/27 08:08:22;;;;;;;4.60;4.20;;;;;;;28.74;41.90;100384.02;104351;1288;69237;-85
2023/08/27 08:10:47;;;;;;;4.50;3.90;;;;;;;28.74;41.86;100382.13;104330;1288;69277;-85
2023/08/27 08:13:29;;;;;;;4.40;4.00;;;;;;;28.74;41.76;100384.00;104151;1288;69275;-90
2023/08/27 08:15:54;;;;;;;4.40;4.00;;;;;;;28.74;41.68;100383.13;104216;1290;69142;-85
2023/08/27 08:18:20;;;;;;;4.60;4.20;;;;;;;28.75;41.79;100382.69;104264;1288;69250;-85
2023/08/27 08:20:45;;;;;;;4.60;4.10;;;;;;;28.76;41.52;100377.79;104338;1289;69192;-85
2023/08/27 08:23:11;;;;;;;4.70;3.90;;;;;;;28.76;41.61;100373.39;104202;1289;69179;-85
2023/08/27 08:25:37;;;;;;;4.70;3.90;;;;;;;28.77;41.59;100369.17;104172;1289;69257;-85
2023/08/27 08:30:45;;;;;;;4.20;3.80;;;;;;;28.78;41.55;100365.55;104289;1288;72356;-85
2023/08/27 08:33:10;;;;;;;4.50;4.10;;;;;;;28.78;41.44;100366.85;104204;1288;69247;-85
2023/08/27 08:35:36;;;;;;;4.50;4.00;;;;;;;28.79;41.36;100366.55;103957;1287;69189;-85
2023/08/27 08:38:01;;;;;;;5.20;4.30;;;;;;;28.80;41.35;100366.73;104010;1288;69334;-85
2023/08/27 08:40:27;;;;;;;5.30;4.20;;;;;;;28.80;41.57;100360.77;104087;1291;69200;-85
2023/08/27 08:42:58;;;;;;;5.00;4.50;;;;;;;28.80;41.43;100362.10;104057;1291;69270;-85
2023/08/27 08:45:31;;;;;;;5.60;4.10;;;;;;;28.81;41.47;100363.13;103989;1286;69100;-85
2023/08/27 08:47:57;;;;;;;4.30;3.90;;;;;;;28.81;41.44;100362.29;104081;1291;69193;-85
2023/08/27 08:50:22;;;;;;;4.50;4.10;;;;;;;28.82;41.39;100360.19;103952;1289;70819;-85
2023/08/27 08:52:49;;;;;;;4.90;4.50;;;;;;;28.83;41.28;100356.45;104134;1288;69249;-85
2023/08/27 08:55:15;;;;;;;5.60;4.10;;;;;;;28.83;41.39;100355.45;104144;1291;69227;-85
2023/08/27 08:57:47;;;;;;;4.60;4.20;;;;;;;28.83;41.44;100355.79;104010;1288;69142;-85
2023/08/27 09:00:13;;;;;;;4.50;4.10;;;;;;;28.83;41.25;100350.25;104218;1291;69188;-85
2023/08/27 09:02:39;;;;;;;5.30;4.00;;;;;;;28.84;41.20;100353.07;104619;1288;69316;-85
2023/08/27 09:05:05;;;;;;;4.40;4.00;;;;;;;28.85;41.25;100351.13;104632;1288;69142;-85
2023/08/27 09:07:32;;;;;;;5.40;4.00;;;;;;;28.86;41.19;100347.73;104168;1294;69260;-85
2023/08/27 09:12:32;;;;;;;4.70;4.10;;;;;;;28.86;41.27;100345.40;104302;1283;69186;-85
2023/08/27 09:14:57;;;;;;;5.00;4.50;;;;;;;28.87;40.97;100347.05;104076;1288;69323;-85
2023/08/27 09:17:23;;;;;;;4.50;4.10;;;;;;;28.87;41.02;100338.10;104297;1287;69186;-85
2023/08/27 09:19:51;;;;;;;4.80;4.40;;;;;;;28.88;41.10;100333.01;104153;1288;69198;-85
2023/08/27 09:22:17;;;;;;;4.40;4.00;;;;;;;28.88;41.08;100334.05;104093;1286;69926;-85
2023/08/27 09:24:43;;;;;;;4.20;3.80;;;;;;;28.89;41.01;100324.69;104089;1286;69195;-85
2023/08/27 09:27:08;;;;;;;4.40;4.00;;;;;;;28.89;40.97;100324.30;104048;1285;69198;-85
2023/08/27 09:29:34;;;;;;;4.80;4.10;;;;;;;28.89;40.85;100317.92;104071;1287;69288;-85
2023/08/27 09:32:00;;;;;;;5.30;4.30;;;;;;;28.89;40.95;100308.92;103767;1293;69276;-85
2023/08/27 09:34:25;;;;;;;5.60;3.90;;;;;;;28.90;40.90;100308.98;104074;1289;69141;-85
2023/08/27 09:36:51;;;;;;;4.60;4.20;;;;;;;28.91;40.94;100303.79;104016;1288;69251;-87
2023/08/27 09:39:16;;;;;;;4.70;4.30;;;;;;;28.91;40.81;100301.55;103959;1288;69320;-85
2023/08/27 09:41:43;;;;;;;4.80;4.00;;;;;;;28.91;40.71;100298.16;103758;1291;70605;-85
2023/08/27 09:44:09;;;;;;;5.10;4.40;;;;;;;28.92;40.71;100293.13;103706;1288;69167;-85
2023/08/27 09:46:35;;;;;;;4.50;4.10;;;;;;;28.92;40.83;100288.83;103626;1288;69262;-85
2023/08/27 09:49:04;;;;;;;4.50;4.10;;;;;;;28.92;40.89;100285.86;104283;1287;69121;-85
2023/08/27 09:51:31;;;;;;;4.40;4.00;;;;;;;28.93;40.67;100281.05;103675;1288;69138;-85
2023/08/27 09:53:57;;;;;;;4.50;4.10;;;;;;;28.93;40.89;100280.51;103971;1288;69203;-85
2023/08/27 09:56:24;;;;;;;4.70;4.30;;;;;;;28.94;40.63;100283.13;103781;1291;69286;-85
2023/08/27 09:58:54;;;;;;;4.70;4.10;;;;;;;28.94;40.78;100285.83;103986;1288;69260;-85
2023/08/27 10:01:21;;;;;;;5.40;4.00;;;;;;;28.94;40.66;100285.90;103992;1288;74431;-85
2023/08/27 10:03:51;;;;;;;4.70;4.20;;;;;;;28.95;40.54;100282.55;103940;1288;69228;-90
2023/08/27 10:06:16;;;;;;;6.60;4.20;;;;;;;28.96;40.64;100276.74;103702;1290;69287;-85
2023/08/27 10:08:48;;;;;;;4.30;3.90;;;;;;;28.97;40.64;100275.69;104041;1288;69280;-85
2023/08/27 10:11:14;;;;;;;4.40;4.00;;;;;;;28.96;40.67;100274.80;104077;1289;69147;-85
2023/08/27 10:13:40;;;;;;;5.80;4.20;;;;;;;28.98;40.66;100274.62;103751;1293;70006;-84
2023/08/27 10:16:06;;;;;;;4.20;3.80;;;;;;;28.98;40.81;100268.19;103805;1291;69279;-85
2023/08/27 10:18:31;;;;;;;4.40;4.00;;;;;;;28.98;40.63;100270.66;103687;1288;69851;-85
2023/08/27 10:20:57;;;;;;;5.10;4.20;;;;;;;28.98;40.49;100267.77;103816;1289;69303;-85
2023/08/27 10:23:22;;;;;;;4.80;4.10;;;;;;;28.98;40.58;100263.57;103778;1295;69143;-85
2023/08/27 10:25:48;;;;;;;4.40;4.00;;;;;;;28.99;40.48;100262.19;103785;1288;69331;-85
2023/08/27 10:28:15;;;;;;;4.30;3.90;;;;;;;28.99;40.42;100264.36;104053;1293;69273;-85
2023/08/27 10:33:21;;;;;;;4.50;4.00;;;;;;;28.99;40.31;100254.66;104066;1287;69095;-84
2023/08/27 10:35:47;;;;;;;4.20;3.80;;;;;;;28.99;40.27;100252.85;104149;1287;69258;-84
2023/08/27 10:38:13;;;;;;;5.40;4.00;;;;;;;29.00;40.29;100243.35;104048;1288;69217;-84
2023/08/27 10:40:39;;;;;;;4.50;4.00;;;;;;;29.01;40.37;100241.86;103935;1288;69269;-84
2023/08/27 10:43:23;;;;;;;5.00;4.10;;;;;;;29.01;40.20;100241.05;104101;1288;69294;-84
2023/08/27 10:45:49;;;;;;;4.80;4.40;;;;;;;29.01;40.00;100239.05;103992;1288;67268;-89
2023/08/27 10:48:18;;;;;;;4.40;3.90;;;;;;;29.02;39.97;100232.73;104792;1288;67785;-86
2023/08/27 10:50:48;;;;;;;5.10;3.90;;;;;;;29.02;40.16;100230.30;104388;1287;69276;-85
2023/08/27 10:53:17;;;;;;;;;;;;;;;29.02;40.12;100227.49;104369;1289;69164;-85
2023/08/27 10:55:44;;;;;;;4.40;4.00;;;;;;;29.01;40.07;100222.70;104318;1287;69137;-85
2023/08/27 10:58:22;;;;;;;4.20;3.70;;;;;;;29.02;40.08;100221.34;104400;1287;69142;-86
2023/08/27 11:01:08;;;;;;;4.30;3.90;;;;;;;29.03;40.11;100222.26;104139;1287;73643;-87
2023/08/27 11:03:54;;;;;;;4.60;4.10;;;;;;;29.04;40.00;100218.19;104005;1287;69182;-90
2023/08/27 11:06:21;;;;;;;4.20;3.80;;;;;;;29.04;40.09;100223.92;104137;1288;69250;-85
2023/08/27 11:08:52;;;;;;;4.60;3.90;;;;;;;29.05;40.03;100214.57;104060;1287;67692;-85
2023/08/27 11:11:22;;;;;;;4.40;4.00;;;;;;;29.05;39.83;100215.90;104136;1288;69157;-85
2023/08/27 11:13:47;;;;;;;4.90;4.20;;;;;;;29.06;39.96;100208.30;103876;1285;73643;-85
2023/08/27 11:16:15;;;;;;;4.20;3.80;;;;;;;29.07;40.15;100198.00;104060;1288;69237;-86
2023/08/27 11:18:47;;;;;;;4.40;4.00;;;;;;;29.07;40.10;100200.58;104586;1287;69225;-91
2023/08/27 11:24:23;;;;;;;4.40;4.00;;;;;;;29.09;39.92;100202.41;103957;1290;69121;-86
2023/08/27 11:26:49;;;;;;;5.80;4.10;;;;;;;29.09;39.92;100201.17;103925;1289;74465;-86
2023/08/27 11:29:14;;;;;;;5.20;4.40;;;;;;;29.10;39.85;100204.11;103721;1290;69689;-85
2023/08/27 11:31:41;;;;;;;4.70;4.20;;;;;;;29.11;39.97;100194.35;103794;1289;69143;-85
2023/08/27 11:34:07;;;;;;;4.20;3.90;;;;;;;29.12;40.09;100193.29;103779;1293;69255;-85
2023/08/27 11:36:42;;;;;;;5.60;4.10;;;;;;;29.12;39.95;100185.34;103771;1289;69154;-91